Time;durP1;ratioP1;P1;durP2;ratioP2;P2;SDS_P1;SDS_P2;PMS_P1;PMS_P2;Temp;Humidity;BMP_temperature;BMP_pressure;BME280_temperature;BME280_humidity;BME280_pressure;Samples;Min_cycle;Max_cycle;Signal;HPM_P1;HPM_P2
2021/05/21 00:01:34;;;;;;;2.05;1.20;;;10.20;66.90;;;9.60;52.00;95040.69;5075554;28;20686;-81
2021/05/21 00:04:01;;;;;;;1.40;1.30;;;10.20;67.30;;;9.61;51.79;95037.06;5087206;28;20705;-82
2021/05/21 00:06:28;;;;;;;1.88;1.23;;;10.20;67.20;;;9.61;52.36;95037.88;4964604;28;20714;-80
2021/05/21 00:08:55;;;;;;;1.60;1.00;;;10.20;67.20;;;9.59;52.18;95024.16;4879422;29;20225;-81
2021/05/21 00:11:23;;;;;;;1.40;1.30;;;10.20;67.20;;;9.62;52.31;95030.84;4811227;29;20212;-81
2021/05/21 00:13:50;;;;;;;1.48;1.20;;;10.20;67.20;;;9.62;52.28;95025.59;4606322;30;20261;-81
2021/05/21 00:18:00;;;;;;;1.10;1.10;;;10.20;67.30;;;9.58;52.03;95029.56;5133817;27;20589;-80
2021/05/21 00:20:27;;;;;;;1.48;1.10;;;10.10;67.10;;;9.56;51.79;95024.50;5089407;28;20292;-80
2021/05/21 00:22:54;;;;;;;1.27;1.17;;;10.20;67.20;;;9.55;52.33;95022.09;5091456;27;20218;-80
2021/05/21 00:25:20;;;;;;;1.33;1.23;;;10.20;67.20;;;9.58;52.25;95025.16;5085484;28;20203;-81
2021/05/21 00:27:47;;;;;;;1.40;1.30;;;10.20;67.30;;;9.59;52.38;95025.97;5091058;28;20559;-81
2021/05/21 00:30:14;;;;;;;1.50;1.40;;;10.10;67.20;;;9.60;52.36;95031.00;5048873;28;20292;-80
2021/05/21 00:32:41;;;;;;;1.55;1.38;;;10.10;67.30;;;9.61;52.42;95030.00;4935758;28;20256;-80
2021/05/21 00:35:09;;;;;;;1.40;1.30;;;10.10;67.30;;;9.59;52.45;95023.34;4851451;29;20204;-81
2021/05/21 00:39:42;;;;;;;1.00;1.00;;;10.10;67.50;;;9.59;52.73;95018.09;5150602;27;20635;-81
2021/05/21 00:42:09;;;;;;;1.58;1.10;;;10.20;67.50;;;9.60;52.27;95012.66;5126526;27;20675;-81
2021/05/21 00:44:36;;;;;;;1.85;1.30;;;10.10;67.40;;;9.66;52.30;95012.97;5084814;28;20214;-80
2021/05/21 00:47:03;;;;;;;1.33;1.20;;;10.10;67.50;;;9.68;52.51;95010.94;5058277;28;20269;-81
2021/05/21 00:49:29;;;;;;;1.25;1.15;;;10.10;67.50;;;9.70;52.70;95001.09;4983984;28;20219;-81
2021/05/21 00:51:56;;;;;;;1.25;1.15;;;10.20;67.70;;;9.76;52.60;95001.19;4890538;29;20300;-81
2021/05/21 00:54:23;;;;;;;1.00;1.00;;;10.20;67.80;;;9.82;52.66;95004.88;4844933;29;20250;-81
2021/05/21 00:56:50;;;;;;;1.23;1.13;;;10.30;67.90;;;9.88;52.36;94998.88;4737986;29;20237;-80
2021/05/21 01:00:38;;;;;;;1.20;1.10;;;10.20;67.80;;;9.91;52.40;94988.06;5148843;27;20648;-81
2021/05/21 01:03:05;;;;;;;0.90;0.90;;;10.30;67.70;;;9.97;52.41;94983.06;5098992;28;20220;-80
2021/05/21 01:05:32;;;;;;;1.30;1.20;;;10.30;67.70;;;9.96;52.39;94974.41;5057464;28;20210;-81
2021/05/21 01:07:58;;;;;;;1.38;1.27;;;10.40;67.80;;;9.92;52.36;94960.84;5035163;28;20223;-81
2021/05/21 01:10:25;;;;;;;1.20;1.10;;;10.40;67.70;;;9.94;52.24;94965.91;5050601;28;20295;-80
2021/05/21 01:12:52;;;;;;;1.23;1.13;;;10.40;67.80;;;9.96;52.43;94968.34;4969532;28;20243;-81
2021/05/21 01:15:19;;;;;;;2.13;1.38;;;10.50;67.80;;;9.94;52.66;94955.44;4862951;29;20237;-81
2021/05/21 01:17:47;;;;;;;1.60;1.50;;;10.40;67.80;;;9.92;52.46;94955.63;4840083;29;20688;-81
2021/05/21 01:22:05;;;;;;;1.33;1.20;;;10.40;67.70;;;9.88;52.52;94953.56;5150219;27;20635;-81
2021/05/21 01:24:32;;;;;;;1.10;1.10;;;10.40;67.60;;;9.85;52.48;94962.59;5088533;27;20312;-80
2021/05/21 01:27:02;;;;;;;1.20;1.05;;;10.40;67.70;;;9.83;52.72;94954.09;5105886;28;20708;-81
2021/05/21 01:29:29;;;;;;;2.15;1.25;;;10.40;68.60;;;9.84;52.65;94954.91;5069669;28;20276;-80
2021/05/21 01:31:56;;;;;;;1.20;1.20;;;10.40;67.70;;;9.83;52.82;94954.09;5073713;28;20255;-81
2021/05/21 01:34:23;;;;;;;1.20;1.10;;;10.30;67.70;;;9.84;52.70;94953.13;4942274;28;20711;-81
2021/05/21 01:36:51;;;;;;;1.30;1.20;;;10.30;67.80;;;9.85;53.06;94943.44;4863943;29;20721;-81
2021/05/21 01:39:18;;;;;;;1.40;1.30;;;10.30;67.80;;;9.86;52.96;94945.88;4771964;29;20260;-80
2021/05/21 01:43:47;;;;;;;1.50;1.40;;;10.30;67.80;;;9.87;53.12;94946.69;5136106;27;20635;-81
2021/05/21 01:46:14;;;;;;;1.73;1.63;;;10.30;67.80;;;9.90;52.97;94947.13;5084678;28;20202;-81
2021/05/21 01:48:41;;;;;;;1.67;1.35;;;10.30;68.00;;;9.92;53.02;94936.44;5050945;28;20267;-81
2021/05/21 01:51:07;;;;;;;1.40;1.30;;;10.40;68.00;;;9.97;52.46;94936.69;5024128;28;20208;-81
2021/05/21 01:53:34;;;;;;;0.95;0.95;;;10.50;68.10;;;10.00;52.96;94931.09;4960337;28;20307;-81
2021/05/21 01:56:01;;;;;;;1.40;1.30;;;10.40;68.20;;;10.02;52.80;94928.28;4937569;28;20212;-81
2021/05/21 01:58:29;;;;;;;1.17;1.08;;;10.40;68.20;;;10.03;52.67;94928.13;4952492;28;20248;-81
2021/05/21 02:00:55;;;;;;;1.83;1.10;;;10.40;68.20;;;10.05;52.89;94920.84;4830274;29;22584;-80
2021/05/21 02:03:33;;;;;;;1.40;1.30;;;10.40;68.20;;;10.04;52.47;94919.22;5138002;27;20327;-81
2021/05/21 02:06:00;;;;;;;1.30;1.20;;;10.50;68.30;;;10.04;52.81;94910.56;5065193;28;20209;-81
2021/05/21 02:08:28;;;;;;;1.27;1.20;;;10.60;68.40;;;10.07;52.86;94916.25;5061781;28;20258;-81
2021/05/21 02:10:55;;;;;;;1.20;1.10;;;10.40;68.30;;;10.07;52.64;94915.41;5036372;28;20217;-81
2021/05/21 02:13:23;;;;;;;1.27;1.17;;;10.50;68.40;;;10.06;53.05;94916.44;5003883;28;20271;-80
2021/05/21 02:15:49;;;;;;;1.33;1.23;;;10.50;68.30;;;10.06;53.05;94906.75;4949172;28;20207;-80
2021/05/21 02:18:16;;;;;;;1.27;1.17;;;10.50;68.40;;;10.05;53.12;94905.13;4926869;28;20587;-80
2021/05/21 02:20:44;;;;;;;1.15;1.05;;;10.50;68.40;;;10.06;53.20;94896.28;4810258;29;20305;-81
2021/05/21 02:24:13;;;;;;;1.40;1.30;;;10.50;68.40;;;10.07;53.15;94897.91;5132201;27;20664;-81
2021/05/21 02:26:40;;;;;;;1.38;1.27;;;10.50;68.30;;;10.09;53.15;94903.78;5068129;28;20297;-80
2021/05/21 02:29:06;;;;;;;1.30;1.20;;;10.50;68.40;;;10.12;53.28;94899.13;5081383;28;20279;-80
2021/05/21 02:31:33;;;;;;;2.08;1.98;;;10.50;68.50;;;10.12;53.05;94896.50;5097209;28;20216;-81
2021/05/21 02:33:59;;;;;;;1.10;1.10;;;10.50;68.50;;;10.08;53.44;94886.41;4979224;28;20725;-81
2021/05/21 02:36:26;;;;;;;2.35;1.30;;;10.60;68.70;;;10.13;53.47;94898.97;4882852;29;20218;-81
2021/05/21 02:38:53;;;;;;;1.40;1.30;;;10.60;68.60;;;10.16;53.53;94898.56;4824980;29;20245;-81
2021/05/21 02:41:21;;;;;;;1.60;1.38;;;10.60;68.60;;;10.16;53.47;94882.84;4733419;29;20219;-81
2021/05/21 02:43:54;;;;;;;1.60;1.50;;;10.60;68.80;;;10.17;53.60;94889.72;5135376;27;20319;-80
2021/05/21 02:46:21;;;;;;;1.40;1.30;;;10.60;68.70;;;10.21;53.50;94890.16;5088210;28;20685;-81
2021/05/21 02:48:47;;;;;;;1.73;1.40;;;10.60;68.70;;;10.23;53.51;94891.56;5103038;28;20230;-81
2021/05/21 02:51:14;;;;;;;1.40;1.30;;;10.60;68.80;;;10.27;53.46;94880.72;5024783;28;20214;-81
2021/05/21 02:53:40;;;;;;;1.60;1.50;;;10.70;68.90;;;10.28;53.32;94869.22;4985862;28;20321;-80
2021/05/21 02:56:07;;;;;;;1.30;1.20;;;10.70;68.90;;;10.33;53.29;94867.66;4916979;28;20255;-81
2021/05/21 02:58:33;;;;;;;1.25;1.15;;;10.70;68.90;;;10.28;53.24;94859.56;4808835;29;20790;-81
2021/05/21 03:01:02;;;;;;;1.40;1.10;;;10.70;69.60;;;10.27;53.31;94852.69;4688169;30;20214;-80
2021/05/21 03:04:52;;;;;;;2.30;1.20;;;10.70;68.80;;;10.19;53.45;94850.19;5150657;27;20639;-81
2021/05/21 03:07:19;;;;;;;1.40;1.30;;;10.70;68.70;;;10.15;53.31;94855.00;5086219;28;20289;-81
2021/05/21 03:09:46;;;;;;;1.73;1.30;;;10.70;68.50;;;10.05;53.33;94844.84;5054661;28;20211;-80
2021/05/21 03:12:13;;;;;;;1.20;1.20;;;10.60;68.50;;;10.03;53.24;94851.28;5002980;28;20212;-81
2021/05/21 03:14:40;;;;;;;2.83;1.20;;;10.60;68.50;;;9.98;53.04;94856.28;4983127;28;20264;-82
2021/05/21 03:17:07;;;;;;;1.35;1.00;;;10.60;68.60;;;9.92;53.44;94850.81;4894173;28;20216;-80
2021/05/21 03:19:33;;;;;;;1.00;1.00;;;10.50;69.50;;;9.88;53.30;94846.13;4912501;29;20212;-81
2021/05/21 03:22:00;;;;;;;1.05;1.00;;;10.60;68.60;;;9.81;53.42;94847.91;4769040;29;20329;-81
2021/05/21 03:25:31;;;;;;;1.20;1.10;;;10.50;68.60;;;9.73;53.57;94843.59;5150547;27;20639;-81
2021/05/21 03:27:58;;;;;;;1.20;1.10;;;10.40;68.60;;;9.69;53.28;94848.41;5100789;28;20225;-81
2021/05/21 03:30:24;;;;;;;1.10;1.10;;;10.30;68.60;;;9.66;53.55;94855.81;5092821;28;20201;-81
2021/05/21 03:32:52;;;;;;;0.98;0.98;;;10.30;68.70;;;9.62;53.56;94855.38;5073301;28;20725;-81
2021/05/21 03:35:18;;;;;;;1.13;1.13;;;10.20;68.60;;;9.57;53.65;94845.47;5040281;28;20209;-81
2021/05/21 03:37:45;;;;;;;1.08;1.08;;;10.20;68.70;;;9.52;53.55;94847.84;4927382;28;20776;-81
2021/05/21 03:40:12;;;;;;;1.17;1.08;;;10.10;69.70;;;9.51;53.47;94845.38;4837593;29;20241;-81
2021/05/21 03:42:39;;;;;;;0.98;0.98;;;10.10;68.90;;;9.47;53.70;94842.34;4685364;30;20247;-81
2021/05/21 03:46:28;;;;;;;1.20;1.20;;;10.10;68.90;;;9.40;53.65;94838.88;5150451;27;20640;-83
2021/05/21 03:48:55;;;;;;;1.20;1.20;;;10.10;68.90;;;9.41;54.28;94853.56;5083490;28;20217;-80
2021/05/21 03:51:21;;;;;;;1.35;1.23;;;10.00;68.90;;;9.39;54.18;94850.34;5054737;28;20336;-81
2021/05/21 03:53:48;;;;;;;1.30;1.20;;;10.00;69.10;;;9.40;54.12;94841.47;5064654;28;20223;-80
2021/05/21 03:56:15;;;;;;;1.65;1.55;;;10.00;69.20;;;9.42;54.22;94855.19;5041822;28;20266;-81
2021/05/21 03:58:44;;;;;;;1.05;1.00;;;9.90;70.60;;;9.40;54.33;94850.13;4947928;28;20239;-82
2021/05/21 04:01:11;;;;;;;1.20;1.10;;;9.90;70.60;;;9.40;54.16;94837.03;4879463;29;20211;-81
2021/05/21 04:03:37;;;;;;;1.33;1.10;;;9.90;70.60;;;9.42;54.39;94845.53;4737880;29;20240;-80
2021/05/21 04:07:24;;;;;;;1.20;1.20;;;9.90;70.70;;;9.42;54.38;94844.72;5148320;27;21138;-82
2021/05/21 04:09:51;;;;;;;1.40;1.08;;;9.90;70.80;;;9.43;54.39;94836.66;5113742;28;20643;-83
2021/05/21 04:12:17;;;;;;;1.02;1.00;;;9.90;70.90;;;9.47;54.22;94839.72;5088517;28;20211;-80
2021/05/21 04:14:44;;;;;;;1.00;1.00;;;9.90;71.00;;;9.51;54.48;94845.38;5083081;28;20211;-82
2021/05/21 04:17:10;;;;;;;1.02;1.02;;;9.90;71.10;;;9.56;54.33;94850.91;4982072;28;20207;-81
2021/05/21 04:19:37;;;;;;;1.10;1.00;;;9.90;71.20;;;9.59;54.49;94850.50;4946423;28;20222;-81
2021/05/21 04:22:03;;;;;;;1.02;1.00;;;9.90;71.30;;;9.63;54.65;94845.72;4910116;29;20217;-82
2021/05/21 04:24:30;;;;;;;1.30;1.15;;;10.00;70.10;;;9.69;54.61;94835.31;4783205;29;20244;-81
2021/05/21 04:28:51;;;;;;;0.90;0.90;;;10.00;70.10;;;9.73;54.41;94833.94;5135265;27;20569;-82
2021/05/21 04:31:18;;;;;;;1.25;1.15;;;10.10;70.20;;;9.77;54.67;94832.53;5123343;28;20201;-79
2021/05/21 04:33:50;;;;;;;1.00;1.00;;;10.10;70.30;;;9.83;54.87;94830.19;5130088;27;20669;-83
2021/05/21 04:36:19;;;;;;;1.10;1.10;;;10.20;70.80;;;9.86;54.62;94829.78;5104306;28;20206;-81
2021/05/21 04:39:00;;;;;;;1.42;1.15;;;10.20;70.50;;;9.90;54.66;94836.28;4984920;28;20281;-83
2021/05/21 04:41:26;;;;;;;1.20;1.20;;;10.20;71.10;;;9.93;54.66;94831.47;4942933;28;20214;-83
2021/05/21 04:44:17;;;;;;;2.10;1.20;;;10.20;70.50;;;9.99;54.68;94824.66;4841851;29;20270;-81
2021/05/21 04:47:03;;;;;;;1.67;1.20;;;10.30;71.10;;;10.01;54.61;94825.28;5149325;27;20965;-81
2021/05/21 04:49:37;;;;;;;1.40;1.30;;;10.40;70.70;;;10.05;54.78;94812.63;5112185;27;20228;-81
2021/05/21 04:52:07;;;;;;;1.85;1.58;;;10.40;70.70;;;10.10;54.55;94816.25;5076681;28;20248;-81
2021/05/21 04:54:41;;;;;;;14.27;7.20;;;10.40;70.90;;;10.15;54.73;94812.28;5078427;28;20344;-81
2021/05/21 04:57:07;;;;;;;39.28;20.35;;;10.40;70.90;;;10.22;55.06;94813.13;4978230;28;20209;-82
2021/05/21 04:59:36;;;;;;;31.35;15.95;;;10.50;71.00;;;10.26;55.09;94811.75;4913487;29;20205;-81
2021/05/21 05:02:04;;;;;;;16.60;9.90;;;10.50;71.00;;;10.34;55.10;94813.38;4743530;29;20227;-81
2021/05/21 05:07:15;;;;;;;4.65;3.25;;;10.50;71.10;;;10.55;55.22;94815.19;5149438;27;20639;-81
2021/05/21 05:09:42;;;;;;;2.85;2.22;;;10.70;71.30;;;10.66;55.13;94816.44;5070885;28;20292;-81
2021/05/21 05:12:09;;;;;;;1.98;1.80;;;10.80;71.40;;;10.78;55.02;94804.38;5079630;28;20211;-80
2021/05/21 05:14:35;;;;;;;1.60;1.48;;;10.90;72.50;;;10.93;55.45;94806.06;5074559;28;20205;-81
2021/05/21 05:17:02;;;;;;;1.73;1.60;;;11.00;71.70;;;11.09;55.13;94808.31;5047649;28;20247;-81
2021/05/21 05:19:28;;;;;;;1.67;1.50;;;11.10;71.70;;;11.20;55.26;94804.31;5036085;28;20264;-79
2021/05/21 05:21:57;;;;;;;1.50;1.40;;;11.20;71.70;;;11.38;55.11;94807.19;4902112;28;20301;-81
2021/05/21 05:24:25;;;;;;;1.58;1.48;;;11.30;71.90;;;11.56;54.90;94803.19;4777266;29;21406;-81
2021/05/21 05:28:12;;;;;;;2.67;1.70;;;11.50;71.90;;;11.84;55.15;94786.44;5141968;27;20978;-80
2021/05/21 05:30:40;;;;;;;2.35;2.15;;;11.60;72.00;;;12.07;55.04;94787.84;5065049;28;20209;-81
2021/05/21 05:33:07;;;;;;;1.83;1.73;;;11.80;72.30;;;12.28;54.44;94786.78;5065521;28;20269;-81
2021/05/21 05:35:34;;;;;;;1.63;1.52;;;12.00;72.20;;;12.51;54.96;94783.69;5039575;28;20254;-81
2021/05/21 05:38:00;;;;;;;1.63;1.50;;;12.20;72.10;;;12.73;54.53;94783.44;4989389;28;20235;-84
2021/05/21 05:40:31;;;;;;;1.20;1.20;;;12.40;72.00;;;12.94;54.43;94782.34;4937260;28;20219;-81
2021/05/21 05:42:58;;;;;;;2.15;1.27;;;12.50;71.90;;;13.12;53.97;94782.47;4856707;29;20277;-80
2021/05/21 05:45:25;;;;;;;1.45;1.35;;;12.80;71.90;;;13.23;53.90;94778.34;4703644;30;20678;-82
2021/05/21 05:48:52;;;;;;;1.33;1.23;;;12.90;71.50;;;13.38;53.75;94777.28;5115248;27;20676;-81
2021/05/21 05:51:19;;;;;;;1.25;1.20;;;13.10;71.20;;;13.44;53.83;94779.06;5097744;28;20566;-80
2021/05/21 05:53:46;;;;;;;1.90;1.23;;;13.20;71.00;;;13.50;53.44;94787.94;5087026;28;20229;-82
2021/05/21 05:56:13;;;;;;;2.20;1.40;;;13.30;70.70;;;13.52;53.58;94783.28;5058519;28;20270;-81
2021/05/21 05:58:40;;;;;;;1.33;1.23;;;13.50;70.70;;;13.54;53.45;94781.22;5017516;28;20231;-80
2021/05/21 06:01:07;;;;;;;1.83;1.02;;;13.50;70.50;;;13.60;53.31;94788.28;4908186;29;20220;-81
2021/05/21 06:03:34;;;;;;;2.63;1.48;;;13.60;70.60;;;13.60;53.34;94775.91;4883403;29;20225;-81
2021/05/21 06:06:01;;;;;;;1.10;1.10;;;13.70;70.40;;;13.68;53.39;94771.41;4844514;29;20226;-81
2021/05/21 06:09:49;;;;;;;1.20;1.20;;;13.60;70.20;;;13.78;53.55;94755.91;5145142;27;20565;-80
2021/05/21 06:12:15;;;;;;;1.63;1.52;;;13.80;70.50;;;13.82;53.42;94746.53;5099866;28;20239;-81
2021/05/21 06:14:42;;;;;;;1.52;1.42;;;13.80;70.50;;;13.93;53.48;94745.03;5068753;28;20637;-79
2021/05/21 06:17:08;;;;;;;1.45;1.30;;;13.90;70.40;;;14.03;53.13;94747.19;5060690;28;20211;-81
2021/05/21 06:19:35;;;;;;;1.48;1.30;;;13.90;70.30;;;14.09;53.14;94746.31;4976995;28;20271;-80
2021/05/21 06:22:02;;;;;;;1.35;1.27;;;14.10;70.50;;;14.17;53.29;94745.22;4802376;29;20228;-81
2021/05/21 06:24:28;;;;;;;1.30;1.20;;;14.10;70.20;;;14.21;53.06;94735.84;4738266;29;20719;-79
2021/05/21 06:31:16;;;;;;;1.52;1.38;;;14.30;70.60;;;14.62;53.14;94746.78;5138762;27;20548;-80
2021/05/21 06:33:42;;;;;;;1.50;1.40;;;14.50;70.60;;;14.73;52.79;94736.31;5071695;28;20226;-81
2021/05/21 06:36:12;;;;;;;1.27;1.20;;;14.50;70.50;;;14.80;52.82;94736.22;5068881;28;20206;-80
2021/05/21 06:38:40;;;;;;;1.30;1.20;;;14.60;70.30;;;14.79;52.76;94729.31;5004990;28;20244;-80
2021/05/21 06:41:08;;;;;;;1.30;1.20;;;14.70;70.00;;;14.84;52.62;94724.19;4903701;28;20692;-79
2021/05/21 06:43:35;;;;;;;1.25;1.15;;;14.70;69.90;;;14.89;52.51;94718.22;4774182;29;20253;-84
2021/05/21 06:46:03;;;;;;;1.52;1.40;;;14.80;70.10;;;14.91;52.56;94713.53;4639497;30;20215;-81
2021/05/21 06:48:32;;;;;;;1.30;1.20;;;14.80;69.80;;;14.93;52.51;94705.38;4550494;31;20254;-81
2021/05/21 06:53:13;;;;;;;1.20;1.20;;;14.80;69.80;;;15.07;52.60;94698.88;5116286;27;20575;-81
2021/05/21 06:55:40;;;;;;;2.58;1.20;;;15.00;70.20;;;15.18;52.87;94695.50;5083296;28;20211;-80
2021/05/21 06:58:06;;;;;;;1.40;1.30;;;15.00;70.30;;;15.29;52.73;94674.59;5109363;28;20516;-81
2021/05/21 07:00:38;;;;;;;1.40;1.13;;;15.20;70.30;;;15.45;52.42;94689.81;5032965;28;20240;-80
2021/05/21 07:03:05;;;;;;;1.55;1.20;;;15.20;70.30;;;15.58;52.42;94675.56;5052966;28;20246;-81
2021/05/21 07:05:31;;;;;;;1.60;1.50;;;15.30;70.40;;;15.70;52.65;94688.78;5072569;28;20210;-80
2021/05/21 07:07:58;;;;;;;1.10;1.10;;;15.40;70.30;;;15.81;52.34;94685.34;4964121;28;20233;-80
2021/05/21 07:10:24;;;;;;;1.20;1.10;;;15.50;70.00;;;15.94;52.14;94683.50;4690677;29;20275;-80
2021/05/21 07:14:41;;;;;;;1.35;1.25;;;15.60;69.70;;;16.19;51.94;94690.41;5129986;27;20640;-81
2021/05/21 07:17:07;;;;;;;1.20;1.10;;;15.80;69.60;;;16.36;51.84;94683.34;5083776;28;20206;-80
2021/05/21 07:19:36;;;;;;;1.05;0.95;;;16.00;69.90;;;16.62;51.25;94673.28;5049208;28;20211;-81
2021/05/21 07:22:08;;;;;;;1.30;1.20;;;16.10;69.20;;;16.85;50.93;94676.88;5038917;28;20576;-80
2021/05/21 07:24:36;;;;;;;1.23;1.10;;;16.30;69.60;;;17.07;50.85;94677.03;4961333;28;20236;-81
2021/05/21 07:27:04;;;;;;;2.25;1.20;;;16.50;69.60;;;17.27;50.56;94661.50;4870116;29;20253;-80
2021/05/21 07:29:31;;;;;;;1.00;1.00;;;16.70;69.20;;;17.51;50.18;94653.38;4611655;30;20247;-82
2021/05/21 07:31:58;;;;;;;3.00;1.05;;;16.80;68.80;;;17.67;48.53;94653.59;4596192;30;20316;-81
2021/05/21 07:34:32;;;;;;;1.42;0.77;;;17.10;68.50;;;17.79;48.44;94645.56;5130291;27;20404;-81
2021/05/21 07:36:59;;;;;;;1.00;1.00;;;17.20;67.70;;;17.98;48.89;94662.84;5088713;28;20201;-80
2021/05/21 07:39:25;;;;;;;0.95;0.95;;;17.40;67.90;;;18.16;48.50;94655.63;5102833;28;20228;-81
2021/05/21 07:41:54;;;;;;;1.15;0.93;;;17.60;67.70;;;18.31;48.24;94653.19;5065817;28;20257;-81
2021/05/21 07:44:22;;;;;;;0.85;0.85;;;17.70;67.50;;;18.50;48.22;94650.22;5011184;28;20714;-81
2021/05/21 07:46:48;;;;;;;0.80;0.80;;;17.90;67.20;;;18.73;45.78;94657.91;4993364;28;20220;-81
2021/05/21 07:49:14;;;;;;;0.70;0.70;;;18.10;66.70;;;18.94;45.51;94644.84;4946075;28;20768;-81
2021/05/21 07:51:41;;;;;;;0.85;0.85;;;18.20;65.90;;;19.21;46.26;94644.03;4845688;28;23430;-84
2021/05/21 07:56:00;;;;;;;0.80;0.80;;;18.40;66.10;;;19.66;45.87;94634.84;5149835;27;20968;-81
2021/05/21 07:58:27;;;;;;;0.93;0.93;;;18.80;65.80;;;19.86;45.50;94630.75;5091598;28;20229;-81
2021/05/21 08:00:53;;;;;;;1.33;0.90;;;19.10;65.70;;;19.96;45.40;94624.66;5086009;28;20213;-81
2021/05/21 08:03:20;;;;;;;0.75;0.75;;;19.20;65.50;;;20.09;44.05;94629.53;5061172;28;20222;-81
2021/05/21 08:05:47;;;;;;;0.80;0.80;;;19.40;64.60;;;20.24;44.33;94633.34;5045062;28;20251;-79
2021/05/21 08:08:22;;;;;;;0.80;0.80;;;19.60;64.80;;;20.40;42.39;94642.19;4899781;29;20325;-80
2021/05/21 08:10:57;;;;;;;0.50;0.50;;;19.80;63.30;;;20.54;41.00;94629.97;4857305;29;20240;-82
2021/05/21 08:13:24;;;;;;;0.80;0.80;;;19.90;62.10;;;20.57;38.77;94623.34;4760507;29;20241;-81
2021/05/21 08:16:03;;;;;;;0.70;0.70;;;20.00;60.50;;;20.60;40.43;94622.78;5135547;27;20308;-81
2021/05/21 08:18:30;;;;;;;0.70;0.70;;;20.20;61.40;;;20.63;40.08;94625.75;5092986;28;20589;-81
2021/05/21 08:20:56;;;;;;;0.95;0.70;;;20.30;61.10;;;20.58;36.82;94619.59;5062518;28;20304;-80
2021/05/21 08:23:23;;;;;;;0.70;0.70;;;20.30;58.70;;;20.56;37.98;94622.53;5027425;28;20232;-80
2021/05/21 08:25:49;;;;;;;0.60;0.60;;;20.30;58.60;;;20.56;38.21;94611.06;4995142;28;20210;-80
2021/05/21 08:28:16;;;;;;;0.60;0.60;;;20.30;58.60;;;20.56;39.11;94613.75;4960120;28;20260;-81
2021/05/21 08:30:42;;;;;;;0.70;0.70;;;20.30;59.30;;;20.64;38.87;94607.88;4951300;28;20589;-81
2021/05/21 08:33:10;;;;;;;0.68;0.68;;;20.30;59.30;;;20.67;38.17;94604.69;4839303;28;20243;-79
2021/05/21 08:37:57;;;;;;;0.65;0.65;;;20.40;59.00;;;20.76;38.61;94589.00;5143537;27;20958;-81
2021/05/21 08:40:29;;;;;;;0.60;0.60;;;20.50;59.50;;;20.87;37.98;94589.84;5121956;28;20205;-80
2021/05/21 08:42:58;;;;;;;0.70;0.70;;;20.50;58.80;;;20.96;38.29;94582.94;5052563;28;20238;-81
2021/05/21 08:45:29;;;;;;;0.70;0.70;;;20.60;59.00;;;21.15;38.59;94574.41;5018107;28;20594;-81
2021/05/21 08:47:56;;;;;;;0.70;0.70;;;20.70;58.90;;;21.26;37.93;94574.13;4987670;28;20754;-80
2021/05/21 08:50:25;;;;;;;0.88;0.80;;;20.80;58.80;;;21.38;37.94;94575.72;4886597;28;20219;-82
2021/05/21 08:52:52;;;;;;;1.45;0.70;;;20.90;58.80;;;21.48;37.13;94581.03;4858899;29;20282;-81
2021/05/21 08:55:38;;;;;;;0.60;0.60;;;21.00;58.40;;;21.53;36.44;94573.03;5150366;27;20678;-82
2021/05/21 08:58:13;;;;;;;0.95;0.70;;;21.10;56.90;;;21.52;35.25;94571.44;5111628;27;20241;-81
2021/05/21 09:00:40;;;;;;;0.70;0.70;;;21.20;56.00;;;21.54;34.47;94563.16;5090122;28;20218;-81
2021/05/21 09:03:18;;;;;;;4.32;0.70;;;21.20;55.40;;;21.56;36.31;94553.03;5076192;28;20223;-81
2021/05/21 09:06:23;;;;;;;0.82;0.50;;;21.20;56.60;;;21.67;36.24;94551.16;5019123;28;20207;-81
2021/05/21 09:08:54;;;;;;;0.60;0.60;;;21.30;57.80;;;21.74;36.24;94547.13;4946388;28;20667;-81
2021/05/21 09:11:27;;;;;;;1.38;0.70;;;21.30;56.60;;;21.80;35.43;94544.44;4837568;29;20217;-82
2021/05/21 09:16:33;;;;;;;0.70;0.70;;;21.40;55.90;;;21.99;36.67;94537.44;5149651;27;20528;-81
2021/05/21 09:19:19;;;;;;;0.68;0.68;;;21.50;56.70;;;22.16;36.00;94536.31;5088458;28;20221;-80
2021/05/21 09:22:06;;;;;;;0.65;0.65;;;21.60;56.60;;;22.27;35.50;94543.19;5038154;28;20256;-81
2021/05/21 09:24:43;;;;;;;1.67;0.80;;;21.70;55.60;;;22.39;34.66;94546.38;4989737;28;20238;-80
2021/05/21 09:27:13;;;;;;;0.70;0.70;;;21.80;55.10;;;22.46;33.94;94543.41;4938833;28;20221;-81
2021/05/21 09:29:50;;;;;;;0.70;0.70;;;22.00;54.10;;;22.49;33.33;94545.50;4901191;29;20262;-81
2021/05/21 09:32:34;;;;;;;0.70;0.70;;;22.00;53.60;;;22.57;33.79;94546.00;4768177;29;20222;-81
2021/05/21 09:35:19;;;;;;;0.80;0.80;;;22.10;54.20;;;22.61;32.72;94542.50;4589509;30;20250;-81
2021/05/21 09:37:57;;;;;;;0.70;0.70;;;22.20;52.50;;;22.69;33.43;94538.44;5130199;27;20333;-82
2021/05/21 09:40:29;;;;;;;0.70;0.70;;;22.20;53.10;;;22.77;33.67;94540.53;5108127;28;20219;-82
2021/05/21 09:42:58;;;;;;;0.70;0.70;;;22.30;53.50;;;22.84;31.14;94545.59;5069054;28;20322;-82
2021/05/21 09:45:34;;;;;;;0.70;0.70;;;22.40;53.30;;;22.86;31.94;94554.09;5072315;28;20210;-80
2021/05/21 09:48:07;;;;;;;0.82;0.82;;;22.50;51.90;;;22.84;32.23;94549.03;5070561;28;20234;-82
2021/05/21 09:50:43;;;;;;;0.70;0.70;;;22.50;52.00;;;22.90;32.35;94547.13;5001815;28;20212;-81
2021/05/21 09:53:20;;;;;;;0.90;0.90;;;22.50;52.20;;;22.97;32.97;94542.28;4876145;29;20241;-81
2021/05/21 09:56:21;;;;;;;0.70;0.70;;;22.60;52.70;;;23.08;32.67;94534.94;5134773;27;20534;-82
2021/05/21 09:58:51;;;;;;;1.40;0.80;;;22.60;52.30;;;23.22;33.22;94540.50;5108876;27;20623;-82
2021/05/21 10:01:23;;;;;;;0.70;0.70;;;22.70;52.90;;;23.38;33.34;94540.38;5111810;27;20232;-81
2021/05/21 10:03:53;;;;;;;0.52;0.52;;;22.80;53.60;;;23.52;32.73;94535.13;5110479;27;20235;-80
2021/05/21 10:06:24;;;;;;;0.63;0.60;;;22.90;52.80;;;23.57;32.34;94527.88;5074636;28;20238;-82
2021/05/21 10:08:55;;;;;;;0.82;0.82;;;23.00;52.40;;;23.64;32.76;94530.19;5011377;28;20244;-82
2021/05/21 10:11:22;;;;;;;0.70;0.70;;;23.10;52.60;;;23.67;32.29;94525.06;4968796;28;20282;-82
2021/05/21 10:13:49;;;;;;;0.80;0.80;;;23.20;52.00;;;23.72;32.40;94515.41;4777069;29;20252;-82
2021/05/21 10:16:27;;;;;;;0.80;0.80;;;23.20;52.10;;;23.78;32.83;94519.63;5149585;27;20714;-81
2021/05/21 10:18:55;;;;;;;0.80;0.80;;;23.30;52.80;;;23.87;32.79;94525.13;5076669;28;20221;-81
2021/05/21 10:21:22;;;;;;;2.72;0.70;;;23.40;52.70;;;23.90;32.05;94511.97;5084344;28;20219;-81
2021/05/21 10:24:02;;;;;;;0.60;0.60;;;23.40;51.90;;;23.90;31.94;94511.16;5046764;28;20219;-82
2021/05/21 10:26:38;;;;;;;0.80;0.80;;;23.50;51.50;;;23.90;32.61;94506.63;5019657;28;20714;-82
2021/05/21 10:29:10;;;;;;;0.60;0.60;;;23.50;52.30;;;23.90;32.19;94495.09;4901337;28;20245;-80
2021/05/21 10:31:37;;;;;;;0.70;0.65;;;23.50;51.90;;;23.91;32.79;94497.50;4869496;29;20248;-80
2021/05/21 10:34:22;;;;;;;0.82;0.82;;;23.50;52.10;;;23.88;32.28;94489.25;5128015;27;20553;-82
2021/05/21 10:37:24;;;;;;;0.70;0.70;;;23.60;51.30;;;23.82;31.67;94491.16;5054844;28;20573;-81
2021/05/21 10:40:29;;;;;;;0.90;0.90;;;23.60;51.20;;;23.63;30.82;94481.22;5063057;28;20256;-81
2021/05/21 10:43:17;;;;;;;0.80;0.80;;;23.50;50.80;;;23.53;31.26;94492.00;4989234;28;20269;-81
2021/05/21 10:46:02;;;;;;;0.80;0.80;;;23.50;50.10;;;23.43;31.57;94497.50;4931500;28;20301;-81
2021/05/21 10:48:33;;;;;;;0.80;0.80;;;23.30;50.60;;;23.34;30.96;94500.78;4856260;29;20234;-82
2021/05/21 10:51:18;;;;;;;1.90;1.02;;;23.30;49.60;;;23.15;30.21;94507.88;4757540;29;20319;-81
2021/05/21 10:54:35;;;;;;;0.70;0.70;;;23.20;49.90;;;22.98;31.40;94497.59;5132594;27;20672;-81
2021/05/21 10:57:20;;;;;;;0.88;0.88;;;23.00;50.30;;;22.95;31.11;94490.13;5042348;28;20252;-82
2021/05/21 10:59:58;;;;;;;1.27;1.00;;;23.00;49.40;;;22.89;30.28;94491.25;5072967;28;20552;-82
2021/05/21 11:02:43;;;;;;;0.82;0.82;;;22.90;49.10;;;22.83;30.33;94485.16;5046978;28;20330;-82
2021/05/21 11:05:39;;;;;;;0.85;0.85;;;22.80;49.00;;;22.83;31.04;94482.47;4971098;28;20228;-80
2021/05/21 11:08:12;;;;;;;0.82;0.82;;;22.80;50.40;;;22.89;30.86;94475.19;4787372;29;20263;-82
2021/05/21 11:10:43;;;;;;;0.80;0.80;;;22.70;49.00;;;23.01;31.60;94479.09;4701504;30;20223;-81